sensor_id;sensor_type;location;lat;lon;timestamp;P1;durP1;ratioP1;P2;durP2;ratioP2
37527;SDS011;23372;52.050;4.810;2023-08-20T00:00:13;9.60;;;2.10;;
37527;SDS011;23372;52.050;4.810;2023-08-20T00:02:41;8.95;;;2.40;;
37527;SDS011;23372;52.050;4.810;2023-08-20T00:05:07;4.90;;;2.22;;
37527;SDS011;23372;52.050;4.810;2023-08-20T00:07:34;9.35;;;2.42;;
37527;SDS011;23372;52.050;4.810;2023-08-20T00:10:00;7.70;;;2.45;;
37527;SDS011;23372;52.050;4.810;2023-08-20T00:12:27;11.30;;;2.75;;
37527;SDS011;23372;52.050;4.810;2023-08-20T00:15:02;5.25;;;2.33;;
37527;SDS011;23372;52.050;4.810;2023-08-20T00:17:32;11.68;;;3.17;;
37527;SDS011;23372;52.050;4.810;2023-08-20T00:19:59;12.20;;;2.60;;
37527;SDS011;23372;52.050;4.810;2023-08-20T00:22:25;12.73;;;2.50;;
37527;SDS011;23372;52.050;4.810;2023-08-20T00:24:54;10.23;;;2.70;;
37527;SDS011;23372;52.050;4.810;2023-08-20T00:27:22;9.57;;;2.92;;
37527;SDS011;23372;52.050;4.810;2023-08-20T00:29:48;9.07;;;2.42;;
37527;SDS011;23372;52.050;4.810;2023-08-20T00:32:14;12.10;;;2.90;;
37527;SDS011;23372;52.050;4.810;2023-08-20T00:34:40;6.43;;;2.90;;
37527;SDS011;23372;52.050;4.810;2023-08-20T00:37:06;10.82;;;2.95;;
37527;SDS011;23372;52.050;4.810;2023-08-20T00:39:31;8.95;;;2.50;;
37527;SDS011;23372;52.050;4.810;2023-08-20T00:41:57;9.70;;;2.78;;
37527;SDS011;23372;52.050;4.810;2023-08-20T00:44:23;7.88;;;2.58;;
37527;SDS011;23372;52.050;4.810;2023-08-20T00:46:48;6.28;;;2.63;;
37527;SDS011;23372;52.050;4.810;2023-08-20T00:49:15;6.18;;;2.92;;
37527;SDS011;23372;52.050;4.810;2023-08-20T00:51:42;11.63;;;3.30;;
37527;SDS011;23372;52.050;4.810;2023-08-20T00:54:07;13.43;;;3.30;;
37527;SDS011;23372;52.050;4.810;2023-08-20T00:56:34;8.68;;;2.88;;
37527;SDS011;23372;52.050;4.810;2023-08-20T00:59:00;13.55;;;3.15;;
37527;SDS011;23372;52.050;4.810;2023-08-20T01:01:26;10.25;;;2.78;;
37527;SDS011;23372;52.050;4.810;2023-08-20T01:03:51;15.00;;;3.38;;
37527;SDS011;23372;52.050;4.810;2023-08-20T01:09:23;9.85;;;2.85;;
37527;SDS011;23372;52.050;4.810;2023-08-20T01:12:12;7.82;;;2.80;;
37527;SDS011;23372;52.050;4.810;2023-08-20T01:14:39;11.80;;;3.53;;
37527;SDS011;23372;52.050;4.810;2023-08-20T01:17:05;7.07;;;3.45;;
37527;SDS011;23372;52.050;4.810;2023-08-20T01:19:31;6.70;;;3.10;;
37527;SDS011;23372;52.050;4.810;2023-08-20T01:25:04;7.63;;;3.25;;
37527;SDS011;23372;52.050;4.810;2023-08-20T01:30:07;12.93;;;3.55;;
37527;SDS011;23372;52.050;4.810;2023-08-20T01:32:34;11.85;;;3.42;;
37527;SDS011;23372;52.050;4.810;2023-08-20T01:35:01;7.47;;;3.58;;
37527;SDS011;23372;52.050;4.810;2023-08-20T01:37:28;10.13;;;3.58;;
37527;SDS011;23372;52.050;4.810;2023-08-20T01:39:53;10.70;;;3.47;;
37527;SDS011;23372;52.050;4.810;2023-08-20T01:42:19;6.32;;;3.50;;
37527;SDS011;23372;52.050;4.810;2023-08-20T01:44:45;12.95;;;4.22;;
37527;SDS011;23372;52.050;4.810;2023-08-20T01:47:10;10.52;;;4.07;;
37527;SDS011;23372;52.050;4.810;2023-08-20T01:49:36;8.98;;;3.22;;
37527;SDS011;23372;52.050;4.810;2023-08-20T01:52:01;9.73;;;3.70;;
37527;SDS011;23372;52.050;4.810;2023-08-20T01:54:27;13.68;;;4.53;;
37527;SDS011;23372;52.050;4.810;2023-08-20T01:56:53;13.98;;;3.30;;
37527;SDS011;23372;52.050;4.810;2023-08-20T01:59:21;11.02;;;3.67;;
37527;SDS011;23372;52.050;4.810;2023-08-20T02:01:47;11.65;;;4.13;;
37527;SDS011;23372;52.050;4.810;2023-08-20T02:04:12;7.97;;;3.15;;
37527;SDS011;23372;52.050;4.810;2023-08-20T02:06:38;8.63;;;3.60;;
37527;SDS011;23372;52.050;4.810;2023-08-20T02:09:03;10.95;;;3.20;;
37527;SDS011;23372;52.050;4.810;2023-08-20T02:11:29;10.68;;;3.22;;
37527;SDS011;23372;52.050;4.810;2023-08-20T02:13:58;9.27;;;3.50;;
37527;SDS011;23372;52.050;4.810;2023-08-20T02:16:23;18.80;;;4.85;;
37527;SDS011;23372;52.050;4.810;2023-08-20T02:18:49;6.72;;;3.95;;
37527;SDS011;23372;52.050;4.810;2023-08-20T02:21:14;15.50;;;4.43;;
37527;SDS011;23372;52.050;4.810;2023-08-20T02:23:40;11.10;;;4.30;;
37527;SDS011;23372;52.050;4.810;2023-08-20T02:26:05;16.42;;;5.30;;
37527;SDS011;23372;52.050;4.810;2023-08-20T02:28:32;9.20;;;4.68;;
37527;SDS011;23372;52.050;4.810;2023-08-20T02:30:57;8.75;;;4.15;;
37527;SDS011;23372;52.050;4.810;2023-08-20T02:33:25;10.25;;;4.65;;
37527;SDS011;23372;52.050;4.810;2023-08-20T02:35:50;9.23;;;4.55;;
37527;SDS011;23372;52.050;4.810;2023-08-20T02:38:16;18.00;;;5.30;;
37527;SDS011;23372;52.050;4.810;2023-08-20T02:40:41;12.55;;;4.97;;
37527;SDS011;23372;52.050;4.810;2023-08-20T02:43:07;10.82;;;5.38;;
37527;SDS011;23372;52.050;4.810;2023-08-20T02:45:33;8.82;;;4.60;;
37527;SDS011;23372;52.050;4.810;2023-08-20T02:48:04;8.75;;;4.20;;
37527;SDS011;23372;52.050;4.810;2023-08-20T02:50:29;10.75;;;4.82;;
37527;SDS011;23372;52.050;4.810;2023-08-20T02:52:55;9.63;;;4.60;;
37527;SDS011;23372;52.050;4.810;2023-08-20T02:55:21;8.75;;;4.60;;
37527;SDS011;23372;52.050;4.810;2023-08-20T02:57:47;16.15;;;6.43;;
37527;SDS011;23372;52.050;4.810;2023-08-20T03:00:12;12.98;;;4.60;;
37527;SDS011;23372;52.050;4.810;2023-08-20T03:02:38;14.25;;;4.25;;
37527;SDS011;23372;52.050;4.810;2023-08-20T03:05:06;8.05;;;3.70;;
37527;SDS011;23372;52.050;4.810;2023-08-20T03:07:35;11.23;;;4.50;;
37527;SDS011;23372;52.050;4.810;2023-08-20T03:10:01;11.85;;;3.53;;
37527;SDS011;23372;52.050;4.810;2023-08-20T03:12:27;8.93;;;4.30;;
37527;SDS011;23372;52.050;4.810;2023-08-20T03:14:54;9.98;;;4.35;;
37527;SDS011;23372;52.050;4.810;2023-08-20T03:17:19;11.35;;;4.22;;
37527;SDS011;23372;52.050;4.810;2023-08-20T03:19:58;8.43;;;4.30;;
37527;SDS011;23372;52.050;4.810;2023-08-20T03:22:25;13.52;;;4.45;;
37527;SDS011;23372;52.050;4.810;2023-08-20T03:24:52;10.07;;;3.95;;
37527;SDS011;23372;52.050;4.810;2023-08-20T03:27:18;14.00;;;4.22;;
37527;SDS011;23372;52.050;4.810;2023-08-20T03:29:44;11.40;;;3.92;;
37527;SDS011;23372;52.050;4.810;2023-08-20T03:32:11;12.55;;;3.80;;
37527;SDS011;23372;52.050;4.810;2023-08-20T03:34:37;9.13;;;3.65;;
37527;SDS011;23372;52.050;4.810;2023-08-20T03:37:02;15.57;;;4.15;;
37527;SDS011;23372;52.050;4.810;2023-08-20T03:39:29;8.95;;;4.07;;
37527;SDS011;23372;52.050;4.810;2023-08-20T03:41:56;12.68;;;3.75;;
37527;SDS011;23372;52.050;4.810;2023-08-20T03:44:21;12.85;;;3.78;;
37527;SDS011;23372;52.050;4.810;2023-08-20T03:46:47;11.32;;;4.30;;
37527;SDS011;23372;52.050;4.810;2023-08-20T03:49:13;12.40;;;4.40;;
37527;SDS011;23372;52.050;4.810;2023-08-20T03:51:38;7.90;;;3.70;;
37527;SDS011;23372;52.050;4.810;2023-08-20T03:54:04;7.30;;;4.18;;
37527;SDS011;23372;52.050;4.810;2023-08-20T03:56:29;12.80;;;4.35;;
37527;SDS011;23372;52.050;4.810;2023-08-20T03:58:55;14.85;;;4.90;;
37527;SDS011;23372;52.050;4.810;2023-08-20T04:01:21;9.55;;;4.10;;
37527;SDS011;23372;52.050;4.810;2023-08-20T04:03:46;15.00;;;4.50;;
37527;SDS011;23372;52.050;4.810;2023-08-20T04:06:13;11.02;;;5.07;;
37527;SDS011;23372;52.050;4.810;2023-08-20T04:08:39;14.27;;;5.18;;
37527;SDS011;23372;52.050;4.810;2023-08-20T04:11:04;10.13;;;4.30;;
37527;SDS011;23372;52.050;4.810;2023-08-20T04:13:30;9.25;;;4.45;;
37527;SDS011;23372;52.050;4.810;2023-08-20T04:15:56;9.70;;;3.50;;
37527;SDS011;23372;52.050;4.810;2023-08-20T04:18:22;5.93;;;3.15;;
37527;SDS011;23372;52.050;4.810;2023-08-20T04:20:49;5.90;;;3.35;;
37527;SDS011;23372;52.050;4.810;2023-08-20T04:23:16;7.55;;;3.50;;
37527;SDS011;23372;52.050;4.810;2023-08-20T04:25:41;10.18;;;4.15;;
37527;SDS011;23372;52.050;4.810;2023-08-20T04:28:07;11.10;;;4.03;;
37527;SDS011;23372;52.050;4.810;2023-08-20T04:30:34;7.65;;;3.80;;
37527;SDS011;23372;52.050;4.810;2023-08-20T04:33:00;10.65;;;4.55;;
37527;SDS011;23372;52.050;4.810;2023-08-20T04:35:26;12.55;;;4.40;;
37527;SDS011;23372;52.050;4.810;2023-08-20T04:37:52;9.30;;;3.78;;
37527;SDS011;23372;52.050;4.810;2023-08-20T04:40:17;10.27;;;4.30;;
37527;SDS011;23372;52.050;4.810;2023-08-20T04:42:43;11.38;;;4.47;;
37527;SDS011;23372;52.050;4.810;2023-08-20T04:45:08;10.20;;;4.32;;
37527;SDS011;23372;52.050;4.810;2023-08-20T04:47:35;12.63;;;4.43;;
37527;SDS011;23372;52.050;4.810;2023-08-20T04:50:01;10.38;;;4.35;;
37527;SDS011;23372;52.050;4.810;2023-08-20T04:52:27;8.38;;;4.05;;
37527;SDS011;23372;52.050;4.810;2023-08-20T04:54:53;11.98;;;4.95;;
37527;SDS011;23372;52.050;4.810;2023-08-20T04:57:19;13.23;;;4.72;;
37527;SDS011;23372;52.050;4.810;2023-08-20T04:59:44;9.32;;;4.05;;
37527;SDS011;23372;52.050;4.810;2023-08-20T05:02:11;14.10;;;5.28;;
37527;SDS011;23372;52.050;4.810;2023-08-20T05:04:37;11.48;;;4.25;;
37527;SDS011;23372;52.050;4.810;2023-08-20T05:07:03;5.65;;;3.22;;
37527;SDS011;23372;52.050;4.810;2023-08-20T05:09:29;10.13;;;2.90;;
37527;SDS011;23372;52.050;4.810;2023-08-20T05:11:55;6.25;;;2.90;;
37527;SDS011;23372;52.050;4.810;2023-08-20T05:14:20;7.95;;;3.28;;
37527;SDS011;23372;52.050;4.810;2023-08-20T05:16:46;7.70;;;2.85;;
37527;SDS011;23372;52.050;4.810;2023-08-20T05:19:11;7.22;;;2.65;;
37527;SDS011;23372;52.050;4.810;2023-08-20T05:21:37;4.63;;;2.20;;
37527;SDS011;23372;52.050;4.810;2023-08-20T05:24:02;5.35;;;2.22;;
37527;SDS011;23372;52.050;4.810;2023-08-20T05:26:28;4.25;;;2.22;;
37527;SDS011;23372;52.050;4.810;2023-08-20T05:28:54;5.88;;;2.50;;
37527;SDS011;23372;52.050;4.810;2023-08-20T05:31:20;4.38;;;2.38;;
37527;SDS011;23372;52.050;4.810;2023-08-20T05:33:45;7.93;;;3.17;;
37527;SDS011;23372;52.050;4.810;2023-08-20T05:36:11;7.05;;;3.33;;
37527;SDS011;23372;52.050;4.810;2023-08-20T05:38:36;5.97;;;3.63;;
37527;SDS011;23372;52.050;4.810;2023-08-20T05:41:02;6.03;;;3.22;;
37527;SDS011;23372;52.050;4.810;2023-08-20T05:43:28;9.52;;;3.38;;
37527;SDS011;23372;52.050;4.810;2023-08-20T05:45:53;9.32;;;3.67;;
37527;SDS011;23372;52.050;4.810;2023-08-20T05:48:19;10.38;;;3.85;;
37527;SDS011;23372;52.050;4.810;2023-08-20T05:50:45;12.63;;;4.45;;
37527;SDS011;23372;52.050;4.810;2023-08-20T05:53:10;10.40;;;4.28;;
37527;SDS011;23372;52.050;4.810;2023-08-20T05:55:36;13.80;;;4.13;;
37527;SDS011;23372;52.050;4.810;2023-08-20T05:58:02;9.05;;;4.32;;
37527;SDS011;23372;52.050;4.810;2023-08-20T06:00:28;12.43;;;4.10;;
37527;SDS011;23372;52.050;4.810;2023-08-20T06:02:54;10.07;;;4.38;;
37527;SDS011;23372;52.050;4.810;2023-08-20T06:05:19;14.80;;;4.72;;
37527;SDS011;23372;52.050;4.810;2023-08-20T06:07:45;14.15;;;4.22;;
37527;SDS011;23372;52.050;4.810;2023-08-20T06:10:10;11.43;;;4.32;;
37527;SDS011;23372;52.050;4.810;2023-08-20T06:12:36;8.60;;;3.92;;
37527;SDS011;23372;52.050;4.810;2023-08-20T06:15:02;8.07;;;4.05;;
37527;SDS011;23372;52.050;4.810;2023-08-20T06:17:29;12.98;;;3.65;;
37527;SDS011;23372;52.050;4.810;2023-08-20T06:19:54;19.17;;;4.15;;
37527;SDS011;23372;52.050;4.810;2023-08-20T06:22:20;12.20;;;3.83;;
37527;SDS011;23372;52.050;4.810;2023-08-20T06:24:45;9.20;;;4.15;;
37527;SDS011;23372;52.050;4.810;2023-08-20T06:27:11;10.90;;;3.95;;
37527;SDS011;23372;52.050;4.810;2023-08-20T06:29:36;18.55;;;5.10;;
37527;SDS011;23372;52.050;4.810;2023-08-20T06:32:02;13.85;;;4.07;;
37527;SDS011;23372;52.050;4.810;2023-08-20T06:34:28;17.98;;;4.63;;
37527;SDS011;23372;52.050;4.810;2023-08-20T06:36:53;6.80;;;3.20;;
37527;SDS011;23372;52.050;4.810;2023-08-20T06:39:19;16.02;;;3.10;;
37527;SDS011;23372;52.050;4.810;2023-08-20T06:41:45;11.82;;;2.88;;
37527;SDS011;23372;52.050;4.810;2023-08-20T06:44:10;9.77;;;3.17;;
37527;SDS011;23372;52.050;4.810;2023-08-20T06:46:36;8.98;;;2.88;;
37527;SDS011;23372;52.050;4.810;2023-08-20T06:49:02;6.80;;;2.67;;
37527;SDS011;23372;52.050;4.810;2023-08-20T06:51:28;14.15;;;3.17;;
37527;SDS011;23372;52.050;4.810;2023-08-20T06:53:53;11.18;;;3.08;;
37527;SDS011;23372;52.050;4.810;2023-08-20T06:56:20;9.68;;;3.22;;
37527;SDS011;23372;52.050;4.810;2023-08-20T06:58:46;11.45;;;3.13;;
37527;SDS011;23372;52.050;4.810;2023-08-20T07:01:11;9.32;;;3.08;;
37527;SDS011;23372;52.050;4.810;2023-08-20T07:03:38;11.88;;;3.85;;
37527;SDS011;23372;52.050;4.810;2023-08-20T07:06:04;12.30;;;3.33;;
37527;SDS011;23372;52.050;4.810;2023-08-20T07:08:30;10.23;;;3.20;;
37527;SDS011;23372;52.050;4.810;2023-08-20T07:10:55;9.30;;;3.08;;
37527;SDS011;23372;52.050;4.810;2023-08-20T07:13:22;10.10;;;2.35;;
37527;SDS011;23372;52.050;4.810;2023-08-20T07:15:48;10.00;;;2.30;;
37527;SDS011;23372;52.050;4.810;2023-08-20T07:18:14;9.43;;;2.65;;
37527;SDS011;23372;52.050;4.810;2023-08-20T07:20:43;7.32;;;2.20;;
37527;SDS011;23372;52.050;4.810;2023-08-20T07:23:10;9.38;;;2.55;;
37527;SDS011;23372;52.050;4.810;2023-08-20T07:25:39;8.07;;;2.05;;
37527;SDS011;23372;52.050;4.810;2023-08-20T07:28:06;7.80;;;1.83;;
37527;SDS011;23372;52.050;4.810;2023-08-20T07:30:33;6.65;;;1.90;;
37527;SDS011;23372;52.050;4.810;2023-08-20T07:32:59;9.45;;;2.58;;
37527;SDS011;23372;52.050;4.810;2023-08-20T07:35:24;8.85;;;2.35;;
37527;SDS011;23372;52.050;4.810;2023-08-20T07:37:50;9.57;;;2.15;;
37527;SDS011;23372;52.050;4.810;2023-08-20T07:40:16;10.35;;;1.88;;
37527;SDS011;23372;52.050;4.810;2023-08-20T07:42:41;6.85;;;2.17;;
37527;SDS011;23372;52.050;4.810;2023-08-20T07:45:07;9.55;;;2.30;;
37527;SDS011;23372;52.050;4.810;2023-08-20T07:47:35;11.77;;;2.53;;
37527;SDS011;23372;52.050;4.810;2023-08-20T07:50:04;11.43;;;2.50;;
37527;SDS011;23372;52.050;4.810;2023-08-20T07:52:30;7.13;;;1.88;;
37527;SDS011;23372;52.050;4.810;2023-08-20T07:54:56;8.20;;;2.20;;
37527;SDS011;23372;52.050;4.810;2023-08-20T07:57:22;8.50;;;2.55;;
37527;SDS011;23372;52.050;4.810;2023-08-20T07:59:48;8.10;;;1.88;;
37527;SDS011;23372;52.050;4.810;2023-08-20T08:02:14;9.45;;;2.22;;
37527;SDS011;23372;52.050;4.810;2023-08-20T08:04:40;10.18;;;2.35;;
37527;SDS011;23372;52.050;4.810;2023-08-20T08:07:06;8.45;;;1.77;;
37527;SDS011;23372;52.050;4.810;2023-08-20T08:09:32;7.82;;;2.03;;
37527;SDS011;23372;52.050;4.810;2023-08-20T08:11:58;12.07;;;2.00;;
37527;SDS011;23372;52.050;4.810;2023-08-20T08:14:24;10.10;;;2.20;;
37527;SDS011;23372;52.050;4.810;2023-08-20T08:16:50;11.75;;;2.45;;
37527;SDS011;23372;52.050;4.810;2023-08-20T08:19:16;11.38;;;2.88;;
37527;SDS011;23372;52.050;4.810;2023-08-20T08:21:43;8.65;;;1.70;;
37527;SDS011;23372;52.050;4.810;2023-08-20T08:24:09;5.55;;;1.45;;
37527;SDS011;23372;52.050;4.810;2023-08-20T08:26:35;7.28;;;1.92;;
37527;SDS011;23372;52.050;4.810;2023-08-20T08:29:04;10.90;;;2.15;;
37527;SDS011;23372;52.050;4.810;2023-08-20T08:31:31;6.25;;;1.85;;
37527;SDS011;23372;52.050;4.810;2023-08-20T08:33:57;7.07;;;1.52;;
37527;SDS011;23372;52.050;4.810;2023-08-20T08:36:23;5.53;;;1.75;;
37527;SDS011;23372;52.050;4.810;2023-08-20T08:38:52;5.70;;;1.95;;
37527;SDS011;23372;52.050;4.810;2023-08-20T08:41:18;7.68;;;1.70;;
37527;SDS011;23372;52.050;4.810;2023-08-20T08:43:46;7.97;;;2.58;;
37527;SDS011;23372;52.050;4.810;2023-08-20T08:46:13;5.93;;;1.65;;
37527;SDS011;23372;52.050;4.810;2023-08-20T08:48:40;9.15;;;1.90;;
37527;SDS011;23372;52.050;4.810;2023-08-20T08:51:07;9.25;;;1.60;;
37527;SDS011;23372;52.050;4.810;2023-08-20T08:53:33;5.85;;;1.85;;
37527;SDS011;23372;52.050;4.810;2023-08-20T08:56:01;6.60;;;1.63;;
37527;SDS011;23372;52.050;4.810;2023-08-20T08:58:28;10.82;;;2.10;;
37527;SDS011;23372;52.050;4.810;2023-08-20T09:00:54;7.75;;;2.20;;
37527;SDS011;23372;52.050;4.810;2023-08-20T09:03:19;4.88;;;1.55;;
37527;SDS011;23372;52.050;4.810;2023-08-20T09:05:46;7.85;;;1.65;;
37527;SDS011;23372;52.050;4.810;2023-08-20T09:08:23;11.35;;;2.08;;
37527;SDS011;23372;52.050;4.810;2023-08-20T09:10:53;9.38;;;1.52;;
37527;SDS011;23372;52.050;4.810;2023-08-20T09:13:23;8.25;;;1.35;;
37527;SDS011;23372;52.050;4.810;2023-08-20T09:15:51;7.13;;;1.50;;
37527;SDS011;23372;52.050;4.810;2023-08-20T09:18:17;5.18;;;1.27;;
37527;SDS011;23372;52.050;4.810;2023-08-20T09:20:42;7.50;;;1.33;;
37527;SDS011;23372;52.050;4.810;2023-08-20T09:23:11;7.43;;;1.42;;
37527;SDS011;23372;52.050;4.810;2023-08-20T09:25:40;5.43;;;1.20;;
37527;SDS011;23372;52.050;4.810;2023-08-20T09:28:07;6.00;;;1.30;;
37527;SDS011;23372;52.050;4.810;2023-08-20T09:30:33;6.40;;;1.38;;
37527;SDS011;23372;52.050;4.810;2023-08-20T09:33:32;9.50;;;1.75;;
37527;SDS011;23372;52.050;4.810;2023-08-20T09:35:51;5.53;;;1.20;;
37527;SDS011;23372;52.050;4.810;2023-08-20T09:38:19;7.78;;;1.10;;
37527;SDS011;23372;52.050;4.810;2023-08-20T09:40:54;8.25;;;1.40;;
37527;SDS011;23372;52.050;4.810;2023-08-20T09:43:25;4.75;;;1.38;;
37527;SDS011;23372;52.050;4.810;2023-08-20T09:45:54;6.65;;;1.30;;
37527;SDS011;23372;52.050;4.810;2023-08-20T09:48:21;6.03;;;1.60;;
37527;SDS011;23372;52.050;4.810;2023-08-20T09:50:48;7.40;;;1.67;;
37527;SDS011;23372;52.050;4.810;2023-08-20T09:53:18;4.72;;;1.20;;
37527;SDS011;23372;52.050;4.810;2023-08-20T09:55:51;6.53;;;1.30;;
37527;SDS011;23372;52.050;4.810;2023-08-20T09:58:18;6.05;;;1.38;;
37527;SDS011;23372;52.050;4.810;2023-08-20T10:00:50;7.82;;;1.80;;
37527;SDS011;23372;52.050;4.810;2023-08-20T10:03:16;4.38;;;1.17;;
37527;SDS011;23372;52.050;4.810;2023-08-20T10:05:43;4.03;;;1.00;;
37527;SDS011;23372;52.050;4.810;2023-08-20T10:08:20;5.07;;;1.25;;
37527;SDS011;23372;52.050;4.810;2023-08-20T10:10:45;5.45;;;1.02;;
37527;SDS011;23372;52.050;4.810;2023-08-20T10:13:12;3.78;;;1.02;;
37527;SDS011;23372;52.050;4.810;2023-08-20T10:15:39;6.63;;;0.98;;
37527;SDS011;23372;52.050;4.810;2023-08-20T10:18:07;5.85;;;0.93;;
37527;SDS011;23372;52.050;4.810;2023-08-20T10:20:33;2.10;;;0.73;;
37527;SDS011;23372;52.050;4.810;2023-08-20T10:23:00;2.83;;;0.70;;
37527;SDS011;23372;52.050;4.810;2023-08-20T10:25:28;4.78;;;1.00;;
37527;SDS011;23372;52.050;4.810;2023-08-20T10:27:57;3.85;;;0.98;;
37527;SDS011;23372;52.050;4.810;2023-08-20T10:30:36;3.90;;;0.80;;
37527;SDS011;23372;52.050;4.810;2023-08-20T10:33:02;4.13;;;1.00;;
37527;SDS011;23372;52.050;4.810;2023-08-20T10:35:29;4.25;;;1.10;;
37527;SDS011;23372;52.050;4.810;2023-08-20T10:38:13;4.35;;;0.80;;
37527;SDS011;23372;52.050;4.810;2023-08-20T10:41:00;5.05;;;1.42;;
37527;SDS011;23372;52.050;4.810;2023-08-20T10:48:41;5.22;;;1.25;;
37527;SDS011;23372;52.050;4.810;2023-08-20T10:51:08;6.68;;;1.20;;
37527;SDS011;23372;52.050;4.810;2023-08-20T10:53:38;6.35;;;1.23;;
37527;SDS011;23372;52.050;4.810;2023-08-20T10:56:08;3.63;;;1.13;;
37527;SDS011;23372;52.050;4.810;2023-08-20T10:58:41;2.55;;;0.85;;
37527;SDS011;23372;52.050;4.810;2023-08-20T11:01:15;4.13;;;1.23;;
37527;SDS011;23372;52.050;4.810;2023-08-20T11:03:44;3.17;;;1.08;;
37527;SDS011;23372;52.050;4.810;2023-08-20T11:06:10;3.53;;;0.88;;
37527;SDS011;23372;52.050;4.810;2023-08-20T11:08:37;4.57;;;0.90;;
37527;SDS011;23372;52.050;4.810;2023-08-20T11:11:04;3.42;;;0.88;;
37527;SDS011;23372;52.050;4.810;2023-08-20T11:13:32;4.85;;;0.82;;
37527;SDS011;23372;52.050;4.810;2023-08-20T11:15:58;3.28;;;0.98;;
37527;SDS011;23372;52.050;4.810;2023-08-20T11:18:24;4.55;;;1.10;;
37527;SDS011;23372;52.050;4.810;2023-08-20T11:20:50;5.25;;;1.20;;
37527;SDS011;23372;52.050;4.810;2023-08-20T11:23:16;5.35;;;1.13;;
37527;SDS011;23372;52.050;4.810;2023-08-20T11:25:42;5.68;;;1.13;;
37527;SDS011;23372;52.050;4.810;2023-08-20T11:28:08;6.28;;;0.82;;
37527;SDS011;23372;52.050;4.810;2023-08-20T11:30:34;4.75;;;1.27;;
37527;SDS011;23372;52.050;4.810;2023-08-20T11:33:00;7.03;;;1.35;;
37527;SDS011;23372;52.050;4.810;2023-08-20T11:35:26;5.13;;;1.15;;
37527;SDS011;23372;52.050;4.810;2023-08-20T11:37:52;4.93;;;1.58;;
37527;SDS011;23372;52.050;4.810;2023-08-20T11:40:21;5.63;;;0.85;;
37527;SDS011;23372;52.050;4.810;2023-08-20T11:42:47;3.78;;;0.77;;
37527;SDS011;23372;52.050;4.810;2023-08-20T11:45:13;2.80;;;0.70;;
37527;SDS011;23372;52.050;4.810;2023-08-20T11:47:39;4.80;;;1.15;;
37527;SDS011;23372;52.050;4.810;2023-08-20T11:50:05;3.85;;;1.00;;
37527;SDS011;23372;52.050;4.810;2023-08-20T11:52:32;6.90;;;1.05;;
37527;SDS011;23372;52.050;4.810;2023-08-20T11:54:58;11.02;;;1.17;;
37527;SDS011;23372;52.050;4.810;2023-08-20T11:57:25;10.18;;;1.08;;
37527;SDS011;23372;52.050;4.810;2023-08-20T11:59:51;6.20;;;1.08;;
37527;SDS011;23372;52.050;4.810;2023-08-20T12:02:24;2.67;;;0.93;;
37527;SDS011;23372;52.050;4.810;2023-08-20T12:04:50;5.00;;;0.85;;
37527;SDS011;23372;52.050;4.810;2023-08-20T12:07:16;5.30;;;0.98;;
37527;SDS011;23372;52.050;4.810;2023-08-20T12:09:41;6.10;;;0.93;;
37527;SDS011;23372;52.050;4.810;2023-08-20T12:12:07;3.25;;;0.85;;
37527;SDS011;23372;52.050;4.810;2023-08-20T12:14:33;6.57;;;0.93;;
37527;SDS011;23372;52.050;4.810;2023-08-20T12:17:00;3.70;;;0.98;;
37527;SDS011;23372;52.050;4.810;2023-08-20T12:19:25;4.38;;;0.90;;
37527;SDS011;23372;52.050;4.810;2023-08-20T12:21:51;3.67;;;0.90;;
37527;SDS011;23372;52.050;4.810;2023-08-20T12:24:17;6.28;;;0.80;;
37527;SDS011;23372;52.050;4.810;2023-08-20T12:26:46;3.47;;;0.88;;
37527;SDS011;23372;52.050;4.810;2023-08-20T12:29:12;5.03;;;0.95;;
37527;SDS011;23372;52.050;4.810;2023-08-20T12:31:38;4.20;;;0.80;;
37527;SDS011;23372;52.050;4.810;2023-08-20T12:34:05;2.90;;;0.85;;
37527;SDS011;23372;52.050;4.810;2023-08-20T12:36:30;3.80;;;1.17;;
37527;SDS011;23372;52.050;4.810;2023-08-20T12:38:56;4.50;;;0.77;;
37527;SDS011;23372;52.050;4.810;2023-08-20T12:41:21;4.05;;;0.82;;
37527;SDS011;23372;52.050;4.810;2023-08-20T12:43:47;5.60;;;1.05;;
37527;SDS011;23372;52.050;4.810;2023-08-20T12:46:13;5.53;;;0.98;;
37527;SDS011;23372;52.050;4.810;2023-08-20T12:48:39;5.55;;;0.70;;
37527;SDS011;23372;52.050;4.810;2023-08-20T12:51:05;3.67;;;0.93;;
37527;SDS011;23372;52.050;4.810;2023-08-20T12:53:31;3.60;;;1.10;;
37527;SDS011;23372;52.050;4.810;2023-08-20T12:55:56;3.78;;;0.75;;
37527;SDS011;23372;52.050;4.810;2023-08-20T12:58:22;3.95;;;0.93;;
37527;SDS011;23372;52.050;4.810;2023-08-20T13:00:47;3.80;;;0.80;;
37527;SDS011;23372;52.050;4.810;2023-08-20T13:03:13;5.10;;;1.45;;
37527;SDS011;23372;52.050;4.810;2023-08-20T13:05:39;2.80;;;0.80;;
37527;SDS011;23372;52.050;4.810;2023-08-20T13:08:05;4.72;;;0.82;;
37527;SDS011;23372;52.050;4.810;2023-08-20T13:10:31;2.95;;;0.70;;
37527;SDS011;23372;52.050;4.810;2023-08-20T13:12:59;4.43;;;0.90;;
37527;SDS011;23372;52.050;4.810;2023-08-20T13:15:26;4.72;;;0.98;;
37527;SDS011;23372;52.050;4.810;2023-08-20T13:17:51;3.92;;;0.82;;
37527;SDS011;23372;52.050;4.810;2023-08-20T13:20:17;6.00;;;1.00;;
37527;SDS011;23372;52.050;4.810;2023-08-20T13:22:48;6.63;;;1.00;;
37527;SDS011;23372;52.050;4.810;2023-08-20T13:25:14;4.85;;;0.88;;
37527;SDS011;23372;52.050;4.810;2023-08-20T13:27:40;7.32;;;1.50;;
37527;SDS011;23372;52.050;4.810;2023-08-20T13:30:07;5.55;;;1.35;;
37527;SDS011;23372;52.050;4.810;2023-08-20T13:32:34;4.88;;;0.93;;
37527;SDS011;23372;52.050;4.810;2023-08-20T13:35:00;3.78;;;1.05;;
37527;SDS011;23372;52.050;4.810;2023-08-20T13:37:27;2.72;;;1.10;;
37527;SDS011;23372;52.050;4.810;2023-08-20T13:39:53;5.70;;;1.10;;
37527;SDS011;23372;52.050;4.810;2023-08-20T13:42:18;6.53;;;1.25;;
37527;SDS011;23372;52.050;4.810;2023-08-20T13:44:44;3.97;;;1.05;;
37527;SDS011;23372;52.050;4.810;2023-08-20T13:47:09;6.13;;;0.90;;
37527;SDS011;23372;52.050;4.810;2023-08-20T13:49:35;4.43;;;1.00;;
37527;SDS011;23372;52.050;4.810;2023-08-20T13:52:01;4.53;;;0.95;;
37527;SDS011;23372;52.050;4.810;2023-08-20T13:54:26;7.53;;;1.10;;
37527;SDS011;23372;52.050;4.810;2023-08-20T13:56:52;7.07;;;1.10;;
37527;SDS011;23372;52.050;4.810;2023-08-20T13:59:17;5.00;;;0.93;;
37527;SDS011;23372;52.050;4.810;2023-08-20T14:01:43;6.68;;;1.13;;
37527;SDS011;23372;52.050;4.810;2023-08-20T14:04:08;11.23;;;1.38;;
37527;SDS011;23372;52.050;4.810;2023-08-20T14:06:34;4.13;;;1.20;;
37527;SDS011;23372;52.050;4.810;2023-08-20T14:08:59;6.85;;;0.80;;
37527;SDS011;23372;52.050;4.810;2023-08-20T14:11:26;3.10;;;0.82;;
37527;SDS011;23372;52.050;4.810;2023-08-20T14:13:51;5.22;;;0.80;;
37527;SDS011;23372;52.050;4.810;2023-08-20T14:16:17;4.35;;;0.90;;
37527;SDS011;23372;52.050;4.810;2023-08-20T14:18:42;4.63;;;1.10;;
37527;SDS011;23372;52.050;4.810;2023-08-20T14:21:08;6.22;;;1.20;;
37527;SDS011;23372;52.050;4.810;2023-08-20T14:23:33;4.70;;;1.10;;
37527;SDS011;23372;52.050;4.810;2023-08-20T14:26:00;5.53;;;1.05;;
37527;SDS011;23372;52.050;4.810;2023-08-20T14:28:25;7.18;;;1.77;;
37527;SDS011;23372;52.050;4.810;2023-08-20T14:30:51;5.53;;;1.13;;
37527;SDS011;23372;52.050;4.810;2023-08-20T14:33:19;4.18;;;1.30;;
37527;SDS011;23372;52.050;4.810;2023-08-20T14:35:45;6.03;;;1.10;;
37527;SDS011;23372;52.050;4.810;2023-08-20T14:38:12;7.80;;;1.52;;
37527;SDS011;23372;52.050;4.810;2023-08-20T14:40:40;5.80;;;1.30;;
37527;SDS011;23372;52.050;4.810;2023-08-20T14:43:08;7.22;;;1.77;;
37527;SDS011;23372;52.050;4.810;2023-08-20T14:45:34;7.22;;;1.33;;
37527;SDS011;23372;52.050;4.810;2023-08-20T14:48:00;4.85;;;1.25;;
37527;SDS011;23372;52.050;4.810;2023-08-20T14:50:27;4.90;;;1.20;;
37527;SDS011;23372;52.050;4.810;2023-08-20T14:52:53;6.70;;;1.33;;